sensor_id;sensor_type;location;lat;lon;timestamp;pressure;altitude;pressure_sealevel;temperature;humidity
13080;BME280;6606;49.154;9.280;2023-05-12T00:01:00;99362.97;;;12.20;100.00
13080;BME280;6606;49.154;9.280;2023-05-12T00:03:42;99369.72;;;12.11;100.00
13080;BME280;6606;49.154;9.280;2023-05-12T00:06:25;99363.75;;;12.22;100.00
13080;BME280;6606;49.154;9.280;2023-05-12T00:09:07;99355.00;;;12.20;100.00
13080;BME280;6606;49.154;9.280;2023-05-12T00:11:49;99352.75;;;12.14;100.00
13080;BME280;6606;49.154;9.280;2023-05-12T00:14:31;99359.09;;;12.11;100.00
13080;BME280;6606;49.154;9.280;2023-05-12T00:17:12;99357.22;;;12.13;100.00
13080;BME280;6606;49.154;9.280;2023-05-12T00:19:54;99354.84;;;12.23;100.00
13080;BME280;6606;49.154;9.280;2023-05-12T00:22:38;99357.66;;;12.20;100.00
13080;BME280;6606;49.154;9.280;2023-05-12T00:25:19;99352.53;;;12.17;100.00
13080;BME280;6606;49.154;9.280;2023-05-12T00:28:01;99354.16;;;12.19;100.00
13080;BME280;6606;49.154;9.280;2023-05-12T00:30:43;99353.50;;;12.30;100.00
13080;BME280;6606;49.154;9.280;2023-05-12T00:33:25;99347.53;;;12.26;100.00
13080;BME280;6606;49.154;9.280;2023-05-12T00:36:07;99348.09;;;12.31;100.00
13080;BME280;6606;49.154;9.280;2023-05-12T00:38:50;99342.38;;;12.38;100.00
13080;BME280;6606;49.154;9.280;2023-05-12T00:41:32;99344.84;;;12.41;100.00
13080;BME280;6606;49.154;9.280;2023-05-12T00:44:14;99346.28;;;12.46;100.00
13080;BME280;6606;49.154;9.280;2023-05-12T00:46:57;99337.44;;;12.46;100.00
13080;BME280;6606;49.154;9.280;2023-05-12T00:49:39;99347.50;;;12.41;100.00
13080;BME280;6606;49.154;9.280;2023-05-12T00:52:22;99344.84;;;12.41;100.00
13080;BME280;6606;49.154;9.280;2023-05-12T00:55:08;99341.06;;;12.45;100.00
13080;BME280;6606;49.154;9.280;2023-05-12T00:57:51;99343.72;;;12.45;100.00
13080;BME280;6606;49.154;9.280;2023-05-12T01:00:33;99335.75;;;12.45;100.00
13080;BME280;6606;49.154;9.280;2023-05-12T01:03:15;99340.84;;;12.48;100.00
13080;BME280;6606;49.154;9.280;2023-05-12T01:06:00;99339.81;;;12.50;100.00
13080;BME280;6606;49.154;9.280;2023-05-12T01:08:44;99343.44;;;12.49;100.00
13080;BME280;6606;49.154;9.280;2023-05-12T01:11:28;99340.09;;;12.46;100.00
13080;BME280;6606;49.154;9.280;2023-05-12T01:14:09;99349.00;;;12.59;100.00
13080;BME280;6606;49.154;9.280;2023-05-12T01:16:54;99341.97;;;12.58;100.00
13080;BME280;6606;49.154;9.280;2023-05-12T01:19:40;99334.88;;;12.44;100.00
13080;BME280;6606;49.154;9.280;2023-05-12T01:22:24;99341.25;;;12.42;100.00
13080;BME280;6606;49.154;9.280;2023-05-12T01:25:08;99340.78;;;12.35;100.00
13080;BME280;6606;49.154;9.280;2023-05-12T01:27:53;99346.41;;;12.30;100.00
13080;BME280;6606;49.154;9.280;2023-05-12T01:30:36;99337.50;;;12.17;100.00
13080;BME280;6606;49.154;9.280;2023-05-12T01:33:21;99336.41;;;12.20;100.00
13080;BME280;6606;49.154;9.280;2023-05-12T01:36:04;99341.00;;;12.18;100.00
13080;BME280;6606;49.154;9.280;2023-05-12T01:38:46;99340.25;;;12.01;100.00
13080;BME280;6606;49.154;9.280;2023-05-12T01:41:28;99332.91;;;12.05;100.00
13080;BME280;6606;49.154;9.280;2023-05-12T01:44:11;99337.84;;;12.11;100.00
13080;BME280;6606;49.154;9.280;2023-05-12T01:46:53;99339.25;;;12.17;100.00
13080;BME280;6606;49.154;9.280;2023-05-12T01:49:38;99337.53;;;12.30;100.00
13080;BME280;6606;49.154;9.280;2023-05-12T01:52:23;99345.91;;;12.24;100.00
13080;BME280;6606;49.154;9.280;2023-05-12T01:55:06;99342.31;;;12.10;100.00
13080;BME280;6606;49.154;9.280;2023-05-12T01:57:55;99344.22;;;12.23;100.00
13080;BME280;6606;49.154;9.280;2023-05-12T02:00:38;99339.28;;;12.31;100.00
13080;BME280;6606;49.154;9.280;2023-05-12T02:03:27;99343.63;;;12.32;100.00
13080;BME280;6606;49.154;9.280;2023-05-12T02:06:11;99345.81;;;12.40;100.00
13080;BME280;6606;49.154;9.280;2023-05-12T02:08:52;99345.25;;;12.35;100.00
13080;BME280;6606;49.154;9.280;2023-05-12T02:11:35;99350.34;;;12.38;100.00
13080;BME280;6606;49.154;9.280;2023-05-12T02:14:17;99348.84;;;12.34;100.00
13080;BME280;6606;49.154;9.280;2023-05-12T02:17:00;99343.44;;;12.35;100.00
13080;BME280;6606;49.154;9.280;2023-05-12T02:19:46;99350.94;;;12.28;100.00
13080;BME280;6606;49.154;9.280;2023-05-12T02:22:28;99345.31;;;12.33;100.00
13080;BME280;6606;49.154;9.280;2023-05-12T02:25:15;99350.00;;;12.15;100.00
13080;BME280;6606;49.154;9.280;2023-05-12T02:27:57;99344.69;;;12.15;100.00
13080;BME280;6606;49.154;9.280;2023-05-12T02:30:44;99348.00;;;12.19;100.00
13080;BME280;6606;49.154;9.280;2023-05-12T02:33:27;99334.16;;;12.14;100.00
13080;BME280;6606;49.154;9.280;2023-05-12T02:36:11;99341.72;;;12.20;100.00
13080;BME280;6606;49.154;9.280;2023-05-12T02:38:52;99350.00;;;12.15;100.00
13080;BME280;6606;49.154;9.280;2023-05-12T02:41:35;99333.41;;;12.26;100.00
13080;BME280;6606;49.154;9.280;2023-05-12T02:44:16;99338.03;;;12.22;100.00
13080;BME280;6606;49.154;9.280;2023-05-12T02:47:01;99336.31;;;12.21;100.00
13080;BME280;6606;49.154;9.280;2023-05-12T02:49:45;99331.97;;;12.20;100.00
13080;BME280;6606;49.154;9.280;2023-05-12T02:52:27;99340.53;;;12.25;100.00
13080;BME280;6606;49.154;9.280;2023-05-12T02:55:08;99338.78;;;12.24;100.00
13080;BME280;6606;49.154;9.280;2023-05-12T02:57:50;99334.06;;;12.15;100.00
13080;BME280;6606;49.154;9.280;2023-05-12T03:00:32;99328.56;;;12.18;100.00
13080;BME280;6606;49.154;9.280;2023-05-12T03:03:14;99329.78;;;12.13;100.00
13080;BME280;6606;49.154;9.280;2023-05-12T03:05:58;99337.09;;;12.23;100.00
13080;BME280;6606;49.154;9.280;2023-05-12T03:08:40;99334.06;;;12.15;100.00
13080;BME280;6606;49.154;9.280;2023-05-12T03:11:22;99340.50;;;12.11;100.00
13080;BME280;6606;49.154;9.280;2023-05-12T03:14:03;99332.25;;;12.16;100.00
13080;BME280;6606;49.154;9.280;2023-05-12T03:16:45;99335.56;;;12.19;100.00
13080;BME280;6606;49.154;9.280;2023-05-12T03:19:27;99338.44;;;12.30;100.00
13080;BME280;6606;49.154;9.280;2023-05-12T03:22:10;99332.72;;;12.37;100.00
13080;BME280;6606;49.154;9.280;2023-05-12T03:24:52;99331.66;;;12.39;100.00
13080;BME280;6606;49.154;9.280;2023-05-12T03:27:34;99339.38;;;12.44;100.00
13080;BME280;6606;49.154;9.280;2023-05-12T03:30:17;99329.38;;;12.47;100.00
13080;BME280;6606;49.154;9.280;2023-05-12T03:32:58;99332.59;;;12.52;100.00
13080;BME280;6606;49.154;9.280;2023-05-12T03:35:40;99335.81;;;12.58;100.00
13080;BME280;6606;49.154;9.280;2023-05-12T03:38:23;99333.91;;;12.60;100.00
13080;BME280;6606;49.154;9.280;2023-05-12T03:41:05;99337.50;;;12.59;100.00
13080;BME280;6606;49.154;9.280;2023-05-12T03:43:48;99335.81;;;12.58;100.00
13080;BME280;6606;49.154;9.280;2023-05-12T03:46:30;99340.44;;;12.54;100.00
13080;BME280;6606;49.154;9.280;2023-05-12T03:49:13;99339.03;;;12.48;100.00
13080;BME280;6606;49.154;9.280;2023-05-12T03:51:55;99336.97;;;12.39;100.00
13080;BME280;6606;49.154;9.280;2023-05-12T03:54:38;99324.63;;;12.38;100.00
13080;BME280;6606;49.154;9.280;2023-05-12T03:57:20;99331.66;;;12.39;100.00
13080;BME280;6606;49.154;9.280;2023-05-12T04:00:02;99327.84;;;12.43;100.00
13080;BME280;6606;49.154;9.280;2023-05-12T04:02:53;99326.63;;;12.35;100.00
13080;BME280;6606;49.154;9.280;2023-05-12T04:05:34;99331.59;;;12.26;100.00
13080;BME280;6606;49.154;9.280;2023-05-12T04:08:18;99327.13;;;12.27;100.00
13080;BME280;6606;49.154;9.280;2023-05-12T04:11:02;99330.63;;;12.27;100.00
13080;BME280;6606;49.154;9.280;2023-05-12T04:13:43;99327.47;;;12.35;100.00
13080;BME280;6606;49.154;9.280;2023-05-12T04:16:25;99333.16;;;12.43;100.00
13080;BME280;6606;49.154;9.280;2023-05-12T04:19:07;99337.44;;;12.46;100.00
13080;BME280;6606;49.154;9.280;2023-05-12T04:21:49;99335.34;;;12.51;100.00
13080;BME280;6606;49.154;9.280;2023-05-12T04:24:31;99332.88;;;12.62;100.00
13080;BME280;6606;49.154;9.280;2023-05-12T04:27:14;99327.91;;;12.70;100.00
13080;BME280;6606;49.154;9.280;2023-05-12T04:29:56;99332.25;;;12.71;100.00
13080;BME280;6606;49.154;9.280;2023-05-12T04:32:38;99333.03;;;12.73;100.00
13080;BME280;6606;49.154;9.280;2023-05-12T04:35:21;99341.22;;;12.70;100.00
13080;BME280;6606;49.154;9.280;2023-05-12T04:38:03;99335.84;;;12.85;100.00
13080;BME280;6606;49.154;9.280;2023-05-12T04:40:46;99330.88;;;12.93;100.00
13080;BME280;6606;49.154;9.280;2023-05-12T04:43:29;99337.59;;;12.98;100.00
13080;BME280;6606;49.154;9.280;2023-05-12T04:46:11;99343.22;;;12.94;100.00
13080;BME280;6606;49.154;9.280;2023-05-12T04:49:07;99336.38;;;12.90;100.00
13080;BME280;6606;49.154;9.280;2023-05-12T04:51:49;99343.41;;;12.91;100.00
13080;BME280;6606;49.154;9.280;2023-05-12T04:54:31;99346.25;;;13.02;100.00
13080;BME280;6606;49.154;9.280;2023-05-12T04:57:12;99345.91;;;13.07;100.00
13080;BME280;6606;49.154;9.280;2023-05-12T04:59:56;99356.75;;;13.04;100.00
13080;BME280;6606;49.154;9.280;2023-05-12T05:02:39;99354.56;;;13.10;100.00
13080;BME280;6606;49.154;9.280;2023-05-12T05:05:21;99359.06;;;13.23;100.00
13080;BME280;6606;49.154;9.280;2023-05-12T05:08:04;99366.41;;;13.19;100.00
13080;BME280;6606;49.154;9.280;2023-05-12T05:10:49;99369.56;;;13.11;100.00
13080;BME280;6606;49.154;9.280;2023-05-12T05:13:31;99358.13;;;13.24;100.00
13080;BME280;6606;49.154;9.280;2023-05-12T05:16:14;99362.84;;;13.33;100.00
13080;BME280;6606;49.154;9.280;2023-05-12T05:18:56;99363.81;;;13.32;100.00
13080;BME280;6606;49.154;9.280;2023-05-12T05:21:38;99359.44;;;13.31;100.00
13080;BME280;6606;49.154;9.280;2023-05-12T05:24:20;99367.66;;;13.40;100.00
13080;BME280;6606;49.154;9.280;2023-05-12T05:27:02;99366.81;;;13.40;100.00
13080;BME280;6606;49.154;9.280;2023-05-12T05:29:44;99366.59;;;13.43;100.00
13080;BME280;6606;49.154;9.280;2023-05-12T05:32:28;99367.47;;;13.44;100.00
13080;BME280;6606;49.154;9.280;2023-05-12T05:35:10;99371.03;;;13.30;100.00
13080;BME280;6606;49.154;9.280;2023-05-12T05:37:56;99375.56;;;13.42;100.00
13080;BME280;6606;49.154;9.280;2023-05-12T05:40:39;99372.38;;;13.50;100.00
13080;BME280;6606;49.154;9.280;2023-05-12T05:43:21;99371.94;;;13.43;100.00
13080;BME280;6606;49.154;9.280;2023-05-12T05:46:03;99377.03;;;13.46;100.00
13080;BME280;6606;49.154;9.280;2023-05-12T05:48:47;99378.94;;;13.44;100.00
13080;BME280;6606;49.154;9.280;2023-05-12T05:51:30;99372.56;;;13.47;100.00
13080;BME280;6606;49.154;9.280;2023-05-12T05:54:13;99372.38;;;13.62;100.00
13080;BME280;6606;49.154;9.280;2023-05-12T05:56:55;99379.84;;;13.57;100.00
13080;BME280;6606;49.154;9.280;2023-05-12T05:59:40;99380.03;;;13.54;100.00
13080;BME280;6606;49.154;9.280;2023-05-12T06:02:22;99369.19;;;13.57;100.00
13080;BME280;6606;49.154;9.280;2023-05-12T06:05:06;99381.06;;;13.79;100.00
13080;BME280;6606;49.154;9.280;2023-05-12T06:07:48;99373.28;;;13.89;100.00
13080;BME280;6606;49.154;9.280;2023-05-12T06:10:29;99380.91;;;13.68;100.00
13080;BME280;6606;49.154;9.280;2023-05-12T06:13:11;99392.88;;;13.75;100.00
13080;BME280;6606;49.154;9.280;2023-05-12T06:15:53;99393.97;;;13.85;100.00
13080;BME280;6606;49.154;9.280;2023-05-12T06:18:35;99401.81;;;13.61;100.00
13080;BME280;6606;49.154;9.280;2023-05-12T06:21:18;99397.97;;;13.65;100.00
13080;BME280;6606;49.154;9.280;2023-05-12T06:24:00;99394.56;;;13.76;100.00
13080;BME280;6606;49.154;9.280;2023-05-12T06:26:43;99397.16;;;13.90;100.00
13080;BME280;6606;49.154;9.280;2023-05-12T06:29:24;99395.88;;;13.83;100.00
13080;BME280;6606;49.154;9.280;2023-05-12T06:32:06;99400.78;;;13.89;100.00
13080;BME280;6606;49.154;9.280;2023-05-12T06:34:49;99403.78;;;13.84;100.00
13080;BME280;6606;49.154;9.280;2023-05-12T06:37:32;99400.97;;;13.60;100.00
13080;BME280;6606;49.154;9.280;2023-05-12T06:40:14;99404.56;;;13.59;100.00
13080;BME280;6606;49.154;9.280;2023-05-12T06:42:56;99405.38;;;13.87;100.00
13080;BME280;6606;49.154;9.280;2023-05-12T06:45:40;99398.66;;;13.94;100.00
13080;BME280;6606;49.154;9.280;2023-05-12T06:48:22;99411.34;;;14.03;100.00
13080;BME280;6606;49.154;9.280;2023-05-12T06:51:04;99406.09;;;13.89;100.00
13080;BME280;6606;49.154;9.280;2023-05-12T06:53:48;99406.31;;;13.86;100.00
13080;BME280;6606;49.154;9.280;2023-05-12T06:56:29;99405.56;;;13.71;100.00
13080;BME280;6606;49.154;9.280;2023-05-12T06:59:11;99407.28;;;13.85;100.00
13080;BME280;6606;49.154;9.280;2023-05-12T07:01:53;99403.41;;;13.63;100.00
13080;BME280;6606;49.154;9.280;2023-05-12T07:04:35;99405.41;;;13.47;100.00
13080;BME280;6606;49.154;9.280;2023-05-12T07:07:16;99409.59;;;13.64;100.00
13080;BME280;6606;49.154;9.280;2023-05-12T07:09:59;99411.94;;;13.69;100.00
13080;BME280;6606;49.154;9.280;2023-05-12T07:12:41;99407.13;;;13.61;100.00
13080;BME280;6606;49.154;9.280;2023-05-12T07:15:23;99405.34;;;13.34;100.00
13080;BME280;6606;49.154;9.280;2023-05-12T07:18:05;99411.09;;;13.41;100.00
13080;BME280;6606;49.154;9.280;2023-05-12T07:20:47;99410.59;;;13.22;100.00
13080;BME280;6606;49.154;9.280;2023-05-12T07:23:28;99409.38;;;13.27;100.00
13080;BME280;6606;49.154;9.280;2023-05-12T07:26:12;99403.13;;;13.41;100.00
13080;BME280;6606;49.154;9.280;2023-05-12T07:28:55;99405.63;;;13.57;100.00
13080;BME280;6606;49.154;9.280;2023-05-12T07:31:37;99400.03;;;13.74;100.00
13080;BME280;6606;49.154;9.280;2023-05-12T07:34:20;99409.53;;;14.04;100.00
13080;BME280;6606;49.154;9.280;2023-05-12T07:37:02;99406.13;;;14.40;100.00
13080;BME280;6606;49.154;9.280;2023-05-12T07:39:45;99405.00;;;14.81;100.00
13080;BME280;6606;49.154;9.280;2023-05-12T07:42:28;99398.72;;;15.19;100.00
13080;BME280;6606;49.154;9.280;2023-05-12T07:45:10;99402.41;;;15.53;100.00
13080;BME280;6606;49.154;9.280;2023-05-12T07:52:16;99405.38;;;16.19;100.00
13080;BME280;6606;49.154;9.280;2023-05-12T07:54:58;99386.44;;;16.90;100.00
13080;BME280;6606;49.154;9.280;2023-05-12T07:57:41;99395.38;;;17.23;100.00
13080;BME280;6606;49.154;9.280;2023-05-12T08:00:23;99396.78;;;16.83;100.00
13080;BME280;6606;49.154;9.280;2023-05-12T08:03:05;99397.13;;;16.45;100.00
13080;BME280;6606;49.154;9.280;2023-05-12T08:05:47;99402.84;;;16.40;100.00
13080;BME280;6606;49.154;9.280;2023-05-12T08:08:29;99399.34;;;16.62;100.00
13080;BME280;6606;49.154;9.280;2023-05-12T08:11:11;99398.19;;;16.99;100.00
13080;BME280;6606;49.154;9.280;2023-05-12T08:13:54;99402.50;;;16.79;100.00
13080;BME280;6606;49.154;9.280;2023-05-12T08:16:36;99397.16;;;16.79;100.00
13080;BME280;6606;49.154;9.280;2023-05-12T08:19:18;99404.91;;;16.70;100.00
13080;BME280;6606;49.154;9.280;2023-05-12T08:21:59;99402.25;;;16.48;100.00
13080;BME280;6606;49.154;9.280;2023-05-12T08:24:42;99395.47;;;16.78;100.00
13080;BME280;6606;49.154;9.280;2023-05-12T08:27:24;99402.25;;;16.37;100.00
13080;BME280;6606;49.154;9.280;2023-05-12T08:30:08;99400.78;;;16.66;100.00
13080;BME280;6606;49.154;9.280;2023-05-12T08:32:50;99406.63;;;16.49;100.00
13080;BME280;6606;49.154;9.280;2023-05-12T08:35:32;99404.03;;;16.02;100.00
13080;BME280;6606;49.154;9.280;2023-05-12T08:38:14;99413.44;;;16.31;100.00
13080;BME280;6606;49.154;9.280;2023-05-12T08:41:05;99411.50;;;16.33;100.00
13080;BME280;6606;49.154;9.280;2023-05-12T08:43:49;99414.28;;;16.54;100.00
13080;BME280;6606;49.154;9.280;2023-05-12T08:46:33;99411.38;;;16.57;100.00
13080;BME280;6606;49.154;9.280;2023-05-12T08:49:16;99416.22;;;16.29;100.00
13080;BME280;6606;49.154;9.280;2023-05-12T08:52:01;99415.22;;;16.08;100.00
13080;BME280;6606;49.154;9.280;2023-05-12T08:54:43;99416.84;;;15.51;100.00
13080;BME280;6606;49.154;9.280;2023-05-12T08:57:26;99417.59;;;15.88;100.00
13080;BME280;6606;49.154;9.280;2023-05-12T09:00:09;99427.75;;;16.18;100.00
13080;BME280;6606;49.154;9.280;2023-05-12T09:02:53;99425.56;;;16.12;100.00
13080;BME280;6606;49.154;9.280;2023-05-12T09:05:36;99416.94;;;16.20;100.00
13080;BME280;6606;49.154;9.280;2023-05-12T09:08:18;99420.22;;;16.12;100.00
13080;BME280;6606;49.154;9.280;2023-05-12T09:11:00;99424.97;;;16.42;100.00
13080;BME280;6606;49.154;9.280;2023-05-12T09:13:49;99425.09;;;16.75;100.00
13080;BME280;6606;49.154;9.280;2023-05-12T09:16:33;99427.91;;;16.51;100.00
13080;BME280;6606;49.154;9.280;2023-05-12T09:19:19;99434.00;;;16.53;100.00
13080;BME280;6606;49.154;9.280;2023-05-12T09:22:01;99431.91;;;16.56;100.00
13080;BME280;6606;49.154;9.280;2023-05-12T09:24:43;99429.88;;;16.48;100.00
13080;BME280;6606;49.154;9.280;2023-05-12T09:27:25;99427.19;;;16.71;100.00
13080;BME280;6606;49.154;9.280;2023-05-12T09:30:08;99429.00;;;16.93;100.00
13080;BME280;6606;49.154;9.280;2023-05-12T09:32:49;99428.13;;;17.04;100.00
13080;BME280;6606;49.154;9.280;2023-05-12T09:35:37;99434.22;;;16.38;100.00
13080;BME280;6606;49.154;9.280;2023-05-12T09:38:19;99424.25;;;16.40;100.00
13080;BME280;6606;49.154;9.280;2023-05-12T09:41:00;99425.81;;;16.32;100.00
13080;BME280;6606;49.154;9.280;2023-05-12T09:43:45;99422.19;;;16.33;100.00
13080;BME280;6606;49.154;9.280;2023-05-12T09:46:27;99428.25;;;16.35;100.00
13080;BME280;6606;49.154;9.280;2023-05-12T09:49:09;99430.56;;;16.39;100.00
13080;BME280;6606;49.154;9.280;2023-05-12T09:51:54;99426.84;;;16.87;100.00
13080;BME280;6606;49.154;9.280;2023-05-12T09:54:38;99428.91;;;17.49;100.00
13080;BME280;6606;49.154;9.280;2023-05-12T09:57:20;99429.50;;;17.85;100.00
13080;BME280;6606;49.154;9.280;2023-05-12T10:00:04;99425.44;;;18.12;100.00
13080;BME280;6606;49.154;9.280;2023-05-12T10:02:48;99425.72;;;18.09;100.00
13080;BME280;6606;49.154;9.280;2023-05-12T10:05:31;99427.91;;;18.45;100.00
13080;BME280;6606;49.154;9.280;2023-05-12T10:08:19;99435.31;;;19.63;100.00
13080;BME280;6606;49.154;9.280;2023-05-12T10:11:03;99426.28;;;19.74;100.00
13080;BME280;6606;49.154;9.280;2023-05-12T10:13:46;99419.97;;;20.32;100.00
13080;BME280;6606;49.154;9.280;2023-05-12T10:16:28;99419.38;;;20.57;100.00
13080;BME280;6606;49.154;9.280;2023-05-12T10:19:14;99412.28;;;21.12;100.00
13080;BME280;6606;49.154;9.280;2023-05-12T10:22:14;99406.63;;;21.15;100.00
13080;BME280;6606;49.154;9.280;2023-05-12T10:24:58;99408.34;;;21.06;100.00
13080;BME280;6606;49.154;9.280;2023-05-12T10:27:41;99409.41;;;21.23;100.00
13080;BME280;6606;49.154;9.280;2023-05-12T10:30:23;99411.59;;;20.82;100.00
13080;BME280;6606;49.154;9.280;2023-05-12T10:33:07;99411.34;;;20.28;100.00
13080;BME280;6606;49.154;9.280;2023-05-12T10:35:51;99414.34;;;20.15;100.00
13080;BME280;6606;49.154;9.280;2023-05-12T10:38:35;99422.31;;;19.68;100.00
13080;BME280;6606;49.154;9.280;2023-05-12T10:41:27;99421.72;;;19.55;100.00
13080;BME280;6606;49.154;9.280;2023-05-12T10:44:09;99415.94;;;19.40;100.00
13080;BME280;6606;49.154;9.280;2023-05-12T10:46:55;99412.94;;;19.33;100.00
13080;BME280;6606;49.154;9.280;2023-05-12T10:49:39;99409.84;;;19.38;100.00
13080;BME280;6606;49.154;9.280;2023-05-12T10:52:21;99411.50;;;19.20;100.00
13080;BME280;6606;49.154;9.280;2023-05-12T10:55:04;99415.97;;;18.90;100.00
13080;BME280;6606;49.154;9.280;2023-05-12T10:57:49;99417.31;;;18.23;100.00
13080;BME280;6606;49.154;9.280;2023-05-12T11:00:31;99422.22;;;17.65;100.00
13080;BME280;6606;49.154;9.280;2023-05-12T11:03:23;99415.03;;;17.44;100.00
13080;BME280;6606;49.154;9.280;2023-05-12T11:06:05;99417.50;;;17.36;100.00
13080;BME280;6606;49.154;9.280;2023-05-12T11:08:48;99419.75;;;17.08;100.00
13080;BME280;6606;49.154;9.280;2023-05-12T11:15:27;99413.22;;;18.19;100.00
13080;BME280;6606;49.154;9.280;2023-05-12T11:18:10;99411.44;;;18.08;100.00
13080;BME280;6606;49.154;9.280;2023-05-12T11:20:52;99425.31;;;18.34;100.00
13080;BME280;6606;49.154;9.280;2023-05-12T11:23:33;99416.28;;;18.14;100.00
13080;BME280;6606;49.154;9.280;2023-05-12T11:26:16;99416.44;;;18.43;100.00
13080;BME280;6606;49.154;9.280;2023-05-12T11:28:58;99420.78;;;18.35;100.00
13080;BME280;6606;49.154;9.280;2023-05-12T11:31:46;99412.75;;;18.14;100.00
13080;BME280;6606;49.154;9.280;2023-05-12T11:34:27;99416.84;;;18.39;100.00
13080;BME280;6606;49.154;9.280;2023-05-12T11:37:09;99420.69;;;18.46;100.00
13080;BME280;6606;49.154;9.280;2023-05-12T11:39:51;99423.59;;;18.33;100.00
13080;BME280;6606;49.154;9.280;2023-05-12T11:42:33;99415.91;;;17.98;100.00
13080;BME280;6606;49.154;9.280;2023-05-12T11:45:21;99428.09;;;18.33;100.00
13080;BME280;6606;49.154;9.280;2023-05-12T11:48:06;99434.09;;;17.94;100.00
13080;BME280;6606;49.154;9.280;2023-05-12T11:50:49;99426.34;;;18.01;100.00
13080;BME280;6606;49.154;9.280;2023-05-12T11:53:31;99433.28;;;18.04;100.00
13080;BME280;6606;49.154;9.280;2023-05-12T11:56:17;99437.06;;;17.80;100.00
13080;BME280;6606;49.154;9.280;2023-05-12T11:58:58;99436.97;;;18.02;100.00
13080;BME280;6606;49.154;9.280;2023-05-12T12:01:43;99441.34;;;17.71;100.00
13080;BME280;6606;49.154;9.280;2023-05-12T12:04:32;99435.22;;;18.13;100.00
13080;BME280;6606;49.154;9.280;2023-05-12T12:07:14;99454.22;;;18.10;100.00
13080;BME280;6606;49.154;9.280;2023-05-12T12:09:56;99450.97;;;18.27;100.00
13080;BME280;6606;49.154;9.280;2023-05-12T12:12:38;99447.69;;;17.82;100.00
13080;BME280;6606;49.154;9.280;2023-05-12T12:15:19;99452.88;;;18.15;100.00
13080;BME280;6606;49.154;9.280;2023-05-12T12:18:01;99456.72;;;18.01;100.00
13080;BME280;6606;49.154;9.280;2023-05-12T12:20:45;99470.13;;;18.01;100.00
13080;BME280;6606;49.154;9.280;2023-05-12T12:23:27;99461.81;;;18.05;100.00
13080;BME280;6606;49.154;9.280;2023-05-12T12:26:09;99467.16;;;18.46;100.00
13080;BME280;6606;49.154;9.280;2023-05-12T12:28:51;99469.09;;;18.14;100.00
13080;BME280;6606;49.154;9.280;2023-05-12T12:31:32;99472.03;;;18.11;100.00
13080;BME280;6606;49.154;9.280;2023-05-12T12:34:15;99478.06;;;18.24;100.00
13080;BME280;6606;49.154;9.280;2023-05-12T12:36:59;99484.38;;;18.65;100.00
13080;BME280;6606;49.154;9.280;2023-05-12T12:39:40;99485.19;;;18.65;100.00
13080;BME280;6606;49.154;9.280;2023-05-12T12:42:22;99473.53;;;18.45;100.00
13080;BME280;6606;49.154;9.280;2023-05-12T12:45:05;99475.38;;;18.03;100.00
13080;BME280;6606;49.154;9.280;2023-05-12T12:47:47;99473.59;;;18.34;100.00
13080;BME280;6606;49.154;9.280;2023-05-12T12:50:34;99473.59;;;18.34;100.00
13080;BME280;6606;49.154;9.280;2023-05-12T12:53:17;99472.16;;;18.30;100.00
13080;BME280;6606;49.154;9.280;2023-05-12T12:55:59;99479.81;;;18.35;100.00
13080;BME280;6606;49.154;9.280;2023-05-12T12:58:40;99485.31;;;18.33;100.00
13080;BME280;6606;49.154;9.280;2023-05-12T13:01:22;99485.91;;;18.58;100.00
13080;BME280;6606;49.154;9.280;2023-05-12T13:04:06;99478.97;;;18.55;100.00
13080;BME280;6606;49.154;9.280;2023-05-12T13:06:48;99480.59;;;18.98;100.00
13080;BME280;6606;49.154;9.280;2023-05-12T13:09:31;99481.50;;;19.08;100.00
13080;BME280;6606;49.154;9.280;2023-05-12T13:12:13;99484.75;;;18.81;100.00
13080;BME280;6606;49.154;9.280;2023-05-12T13:14:55;99475.34;;;18.97;100.00
13080;BME280;6606;49.154;9.280;2023-05-12T13:17:39;99484.44;;;18.12;100.00
13080;BME280;6606;49.154;9.280;2023-05-12T13:20:21;99473.91;;;18.20;100.00
13080;BME280;6606;49.154;9.280;2023-05-12T13:23:05;99479.66;;;18.78;100.00
13080;BME280;6606;49.154;9.280;2023-05-12T13:25:49;99476.00;;;18.58;100.00
13080;BME280;6606;49.154;9.280;2023-05-12T13:28:31;99475.66;;;18.52;100.00
13080;BME280;6606;49.154;9.280;2023-05-12T13:31:13;99479.88;;;18.96;100.00
13080;BME280;6606;49.154;9.280;2023-05-12T13:33:54;99483.78;;;18.82;100.00
13080;BME280;6606;49.154;9.280;2023-05-12T13:36:36;99484.69;;;18.93;100.00
13080;BME280;6606;49.154;9.280;2023-05-12T13:39:18;99475.47;;;19.36;100.00
13080;BME280;6606;49.154;9.280;2023-05-12T13:42:01;99479.69;;;19.19;100.00
13080;BME280;6606;49.154;9.280;2023-05-12T13:44:48;99480.81;;;19.16;100.00
13080;BME280;6606;49.154;9.280;2023-05-12T13:47:29;99475.78;;;19.02;100.00
13080;BME280;6606;49.154;9.280;2023-05-12T13:50:11;99478.28;;;19.24;100.00
13080;BME280;6606;49.154;9.280;2023-05-12T13:52:55;99475.88;;;19.21;100.00
13080;BME280;6606;49.154;9.280;2023-05-12T13:55:37;99481.16;;;19.02;100.00
13080;BME280;6606;49.154;9.280;2023-05-12T13:58:20;99477.25;;;19.06;100.00
13080;BME280;6606;49.154;9.280;2023-05-12T14:01:02;99486.50;;;18.40;100.00
13080;BME280;6606;49.154;9.280;2023-05-12T14:03:44;99488.00;;;18.33;100.00
13080;BME280;6606;49.154;9.280;2023-05-12T14:06:25;99487.28;;;17.67;100.00
13080;BME280;6606;49.154;9.280;2023-05-12T14:09:07;99483.66;;;17.56;100.00
13080;BME280;6606;49.154;9.280;2023-05-12T14:11:49;99481.28;;;17.42;100.00
13080;BME280;6606;49.154;9.280;2023-05-12T14:14:32;99483.59;;;17.47;100.00
13080;BME280;6606;49.154;9.280;2023-05-12T14:17:14;99490.81;;;17.67;100.00
13080;BME280;6606;49.154;9.280;2023-05-12T14:19:59;99489.13;;;17.66;100.00
13080;BME280;6606;49.154;9.280;2023-05-12T14:22:43;99478.00;;;17.82;100.00
13080;BME280;6606;49.154;9.280;2023-05-12T14:25:28;99483.25;;;17.84;100.00
13080;BME280;6606;49.154;9.280;2023-05-12T14:28:10;99483.59;;;17.90;100.00
13080;BME280;6606;49.154;9.280;2023-05-12T14:30:53;99488.03;;;17.69;100.00